Time;durP1;ratioP1;P1;durP2;ratioP2;P2;SDS_P1;SDS_P2;PMS_P1;PMS_P2;Temp;Humidity;BMP_temperature;BMP_pressure;BME280_temperature;BME280_humidity;BME280_pressure;Samples;Min_cycle;Max_cycle;Signal;HPM_P1;HPM_P2
2023/03/04 00:01:42;;;;;;;20.45;2.60;;;;;;;;;;5081240;28;20049;-79
2023/03/04 00:04:08;;;;;;;19.52;2.50;;;;;;;;;;5088444;28;20058;-79
2023/03/04 00:06:34;;;;;;;18.20;2.92;;;;;;;;;;5099975;28;20553;-79
2023/03/04 00:09:02;;;;;;;20.95;3.38;;;;;;;;;;5094816;28;20044;-78
2023/03/04 00:11:28;;;;;;;23.42;3.85;;;;;;;;;;5083982;28;20040;-78
2023/03/04 00:13:55;;;;;;;16.35;2.40;;;;;;;;;;5100883;28;20048;-79
2023/03/04 00:16:21;;;;;;;17.40;2.55;;;;;;;;;;5098448;28;20047;-79
2023/03/04 00:18:47;;;;;;;19.33;2.70;;;;;;;;;;5096002;28;20040;-79
2023/03/04 00:21:13;;;;;;;18.40;2.95;;;;;;;;;;5084732;28;20552;-79
2023/03/04 00:23:40;;;;;;;15.20;2.40;;;;;;;;;;5086996;28;20383;-79
2023/03/04 00:26:08;;;;;;;17.40;2.88;;;;;;;;;;5097435;28;20406;-79
2023/03/04 00:28:34;;;;;;;21.27;3.35;;;;;;;;;;5081002;28;20414;-79
2023/03/04 00:31:00;;;;;;;20.02;2.70;;;;;;;;;;5079869;28;20487;-79
2023/03/04 00:33:26;;;;;;;21.13;2.97;;;;;;;;;;5089390;28;20121;-79
2023/03/04 00:35:53;;;;;;;17.60;2.60;;;;;;;;;;5101320;28;20040;-79
2023/03/04 00:38:19;;;;;;;16.48;2.75;;;;;;;;;;5099041;28;20519;-79
2023/03/04 00:40:45;;;;;;;20.80;2.65;;;;;;;;;;5102421;28;20040;-79
2023/03/04 00:43:11;;;;;;;20.60;2.30;;;;;;;;;;5100779;28;20070;-79
2023/03/04 00:45:37;;;;;;;19.83;2.67;;;;;;;;;;5101862;28;20044;-79
2023/03/04 00:48:03;;;;;;;17.02;2.67;;;;;;;;;;5101209;28;20090;-78
2023/03/04 00:50:29;;;;;;;20.05;2.92;;;;;;;;;;5097597;28;20040;-79
2023/03/04 00:52:55;;;;;;;15.60;2.38;;;;;;;;;;5100638;28;20036;-79
2023/03/04 00:55:21;;;;;;;18.00;2.88;;;;;;;;;;5100327;28;20052;-79
2023/03/04 00:57:47;;;;;;;17.15;2.63;;;;;;;;;;5078969;28;20087;-79
2023/03/04 01:00:13;;;;;;;17.73;2.65;;;;;;;;;;5076247;28;20052;-79
2023/03/04 01:02:39;;;;;;;19.92;2.80;;;;;;;;;;5079334;28;20047;-79
2023/03/04 01:05:06;;;;;;;18.85;2.25;;;;;;;;;;5096065;28;20055;-79
2023/03/04 01:07:32;;;;;;;19.00;2.53;;;;;;;;;;5094619;28;20410;-80
2023/03/04 01:09:58;;;;;;;19.55;2.33;;;;;;;;;;5094413;28;20100;-79
2023/03/04 01:12:24;;;;;;;21.23;2.60;;;;;;;;;;5094707;28;20044;-79
2023/03/04 01:14:50;;;;;;;16.45;2.88;;;;;;;;;;5098791;28;20070;-79
2023/03/04 01:17:16;;;;;;;19.08;3.00;;;;;;;;;;5091097;28;20044;-79
2023/03/04 01:19:43;;;;;;;24.02;4.13;;;;;;;;;;5074082;28;20092;-79
2023/03/04 01:22:11;;;;;;;23.45;4.70;;;;;;;;;;5078407;28;20105;-79
2023/03/04 01:24:37;;;;;;;19.05;2.80;;;;;;;;;;5079248;28;20512;-79
2023/03/04 01:27:03;;;;;;;15.98;2.60;;;;;;;;;;5081614;28;20048;-79
2023/03/04 01:29:29;;;;;;;21.38;2.70;;;;;;;;;;5085782;28;20040;-79
2023/03/04 01:31:55;;;;;;;13.93;2.30;;;;;;;;;;5083537;28;20130;-79
2023/03/04 01:34:21;;;;;;;18.00;2.15;;;;;;;;;;5098006;28;20386;-79
2023/03/04 01:36:47;;;;;;;14.60;2.45;;;;;;;;;;5085679;28;21937;-79
2023/03/04 01:39:13;;;;;;;18.63;2.45;;;;;;;;;;5077637;28;20055;-79
2023/03/04 01:41:39;;;;;;;15.00;2.30;;;;;;;;;;5093781;28;20502;-79
2023/03/04 01:44:05;;;;;;;16.88;2.30;;;;;;;;;;5098206;28;20036;-79
2023/03/04 01:46:32;;;;;;;12.77;1.77;;;;;;;;;;5086021;28;20100;-79
2023/03/04 01:48:58;;;;;;;18.73;2.75;;;;;;;;;;5089745;28;20045;-79
2023/03/04 01:51:24;;;;;;;20.63;3.10;;;;;;;;;;5068074;28;20052;-79
2023/03/04 01:53:53;;;;;;;14.13;2.17;;;;;;;;;;5078731;28;20127;-77
2023/03/04 01:56:24;;;;;;;15.13;2.40;;;;;;;;;;5081496;28;20502;-79
2023/03/04 01:59:17;;;;;;;17.90;2.70;;;;;;;;;;5083026;28;20149;-79
2023/03/04 02:01:45;;;;;;;19.38;2.65;;;;;;;;;;5093618;28;20498;-79
2023/03/04 02:04:11;;;;;;;20.58;3.10;;;;;;;;;;5091286;28;20093;-79
2023/03/04 02:06:39;;;;;;;12.55;2.42;;;;;;;;;;5077974;28;20083;-79
2023/03/04 02:09:05;;;;;;;16.77;2.08;;;;;;;;;;5072261;28;20044;-79
2023/03/04 02:11:31;;;;;;;14.40;2.38;;;;;;;;;;5079775;28;20401;-78
2023/03/04 02:13:58;;;;;;;13.90;2.00;;;;;;;;;;5084381;28;20045;-79
2023/03/04 02:16:24;;;;;;;18.17;2.25;;;;;;;;;;5092323;28;20048;-79
2023/03/04 02:18:50;;;;;;;19.38;2.35;;;;;;;;;;5077437;28;20045;-79
2023/03/04 02:21:24;;;;;;;17.42;2.55;;;;;;;;;;5091401;28;20048;-79
2023/03/04 02:24:03;;;;;;;17.17;2.45;;;;;;;;;;5094007;28;20123;-79
2023/03/04 02:26:31;;;;;;;14.70;2.80;;;;;;;;;;5079291;28;20045;-79
2023/03/04 02:28:58;;;;;;;14.43;2.28;;;;;;;;;;5089248;28;20536;-79
2023/03/04 02:31:29;;;;;;;19.27;2.63;;;;;;;;;;5093950;28;20044;-79
2023/03/04 02:33:57;;;;;;;15.18;2.17;;;;;;;;;;5094285;28;20093;-79
2023/03/04 02:36:23;;;;;;;19.33;3.03;;;;;;;;;;5073236;28;20449;-79
2023/03/04 02:38:51;;;;;;;15.40;2.47;;;;;;;;;;5093661;28;20036;-79
2023/03/04 02:41:19;;;;;;;19.33;2.35;;;;;;;;;;5090851;28;20101;-80
2023/03/04 02:43:46;;;;;;;20.42;2.75;;;;;;;;;;5090737;28;20044;-79
2023/03/04 02:46:12;;;;;;;12.93;2.22;;;;;;;;;;5093698;28;20054;-79
2023/03/04 02:48:39;;;;;;;16.52;2.30;;;;;;;;;;5092053;28;20044;-79
2023/03/04 02:51:05;;;;;;;17.98;2.72;;;;;;;;;;5099051;28;20040;-79
2023/03/04 02:53:31;;;;;;;17.95;2.58;;;;;;;;;;5097054;28;20491;-80
2023/03/04 02:55:57;;;;;;;14.32;2.20;;;;;;;;;;5098133;28;20552;-79
2023/03/04 02:58:23;;;;;;;16.35;2.30;;;;;;;;;;5097819;28;20048;-79
2023/03/04 03:00:49;;;;;;;14.13;2.10;;;;;;;;;;5078506;28;20051;-79
2023/03/04 03:03:15;;;;;;;17.73;2.20;;;;;;;;;;5077744;28;20044;-79
2023/03/04 03:05:41;;;;;;;15.45;2.17;;;;;;;;;;5079889;28;20061;-79
2023/03/04 03:08:08;;;;;;;15.48;2.30;;;;;;;;;;5077255;28;20414;-79
2023/03/04 03:10:34;;;;;;;17.92;2.47;;;;;;;;;;5080808;28;20072;-80
2023/03/04 03:13:00;;;;;;;17.98;2.25;;;;;;;;;;5099466;28;20047;-79
2023/03/04 03:15:26;;;;;;;17.75;2.63;;;;;;;;;;5092346;28;20044;-79
2023/03/04 03:17:52;;;;;;;17.98;2.40;;;;;;;;;;5099493;28;20170;-79
2023/03/04 03:20:18;;;;;;;15.80;2.47;;;;;;;;;;5101190;28;20047;-79
2023/03/04 03:22:44;;;;;;;24.15;2.60;;;;;;;;;;5098556;28;20090;-79
2023/03/04 03:25:12;;;;;;;19.67;2.45;;;;;;;;;;5091400;28;20063;-79
2023/03/04 03:27:38;;;;;;;14.25;2.33;;;;;;;;;;5081939;28;20040;-79
2023/03/04 03:30:05;;;;;;;20.70;2.75;;;;;;;;;;5099696;28;20071;-80
2023/03/04 03:32:31;;;;;;;19.17;2.58;;;;;;;;;;5080005;28;20085;-79
2023/03/04 03:34:57;;;;;;;16.02;2.40;;;;;;;;;;5077054;28;20174;-79
2023/03/04 03:37:23;;;;;;;17.63;2.30;;;;;;;;;;5077521;28;20543;-79
2023/03/04 03:39:49;;;;;;;16.98;2.55;;;;;;;;;;5078801;28;20045;-79
2023/03/04 03:42:15;;;;;;;18.05;2.10;;;;;;;;;;5091367;28;20115;-79
2023/03/04 03:44:41;;;;;;;16.63;2.20;;;;;;;;;;5093825;28;20414;-79
2023/03/04 03:47:07;;;;;;;15.27;2.55;;;;;;;;;;5081428;28;20408;-78
2023/03/04 03:49:33;;;;;;;18.50;2.30;;;;;;;;;;5077089;28;20056;-80
2023/03/04 03:51:59;;;;;;;15.75;2.17;;;;;;;;;;5096674;28;20052;-80
2023/03/04 03:54:25;;;;;;;18.95;2.35;;;;;;;;;;5076603;28;20054;-80
2023/03/04 03:56:51;;;;;;;18.40;2.60;;;;;;;;;;5076307;28;20460;-80
2023/03/04 03:59:17;;;;;;;15.48;2.15;;;;;;;;;;5087569;28;20118;-80
2023/03/04 04:01:44;;;;;;;17.85;2.90;;;;;;;;;;5082168;28;20048;-80
2023/03/04 04:04:10;;;;;;;21.10;2.80;;;;;;;;;;5087960;28;20402;-80
2023/03/04 04:06:36;;;;;;;18.30;2.25;;;;;;;;;;5096081;28;20063;-79
2023/03/04 04:09:02;;;;;;;20.60;2.60;;;;;;;;;;5099963;28;20068;-79
2023/03/04 04:11:29;;;;;;;16.52;2.20;;;;;;;;;;5111559;28;20049;-79
2023/03/04 04:13:56;;;;;;;12.93;2.15;;;;;;;;;;5101675;28;20045;-79
2023/03/04 04:16:22;;;;;;;16.23;1.85;;;;;;;;;;5108149;28;20108;-79
2023/03/04 04:18:48;;;;;;;12.50;1.92;;;;;;;;;;5110218;28;20048;-79
2023/03/04 04:21:14;;;;;;;15.93;1.98;;;;;;;;;;5108170;28;20043;-79
2023/03/04 04:23:40;;;;;;;17.50;2.20;;;;;;;;;;5092609;28;20047;-80
2023/03/04 04:26:06;;;;;;;18.30;2.42;;;;;;;;;;5095271;28;20051;-80
2023/03/04 04:28:33;;;;;;;19.30;2.70;;;;;;;;;;5095471;28;20497;-80
2023/03/04 04:30:59;;;;;;;15.93;1.83;;;;;;;;;;5092922;28;20047;-80
2023/03/04 04:33:25;;;;;;;16.38;2.13;;;;;;;;;;5095802;28;20040;-80
2023/03/04 04:35:51;;;;;;;14.13;1.92;;;;;;;;;;5088594;28;20047;-80
2023/03/04 04:38:17;;;;;;;18.83;2.33;;;;;;;;;;5095570;28;20040;-79
2023/03/04 04:40:43;;;;;;;13.32;1.75;;;;;;;;;;5095896;28;20048;-80
2023/03/04 04:43:09;;;;;;;12.93;2.42;;;;;;;;;;5086188;28;20045;-80
2023/03/04 04:45:35;;;;;;;17.65;2.05;;;;;;;;;;5084280;28;20040;-80
2023/03/04 04:48:01;;;;;;;19.33;2.00;;;;;;;;;;5088139;28;20514;-80
2023/03/04 04:50:27;;;;;;;11.55;2.13;;;;;;;;;;5075086;28;20047;-80
2023/03/04 04:52:53;;;;;;;11.35;2.20;;;;;;;;;;5080569;28;20494;-79
2023/03/04 04:55:19;;;;;;;19.35;2.33;;;;;;;;;;5094845;28;20044;-80
2023/03/04 04:57:45;;;;;;;19.80;2.40;;;;;;;;;;5094370;28;20040;-80
2023/03/04 05:00:12;;;;;;;18.80;4.10;;;;;;;;;;5094955;28;20040;-80
2023/03/04 05:02:38;;;;;;;15.10;3.78;;;;;;;;;;5097491;28;20040;-79
2023/03/04 05:05:05;;;;;;;11.15;1.80;;;;;;;;;;5094055;28;20082;-80
2023/03/04 05:07:31;;;;;;;16.52;1.92;;;;;;;;;;5095523;28;20060;-80
2023/03/04 05:09:57;;;;;;;13.02;1.90;;;;;;;;;;5088936;28;20177;-80
2023/03/04 05:12:23;;;;;;;14.68;1.60;;;;;;;;;;5101544;28;20040;-80
2023/03/04 05:14:49;;;;;;;13.93;2.33;;;;;;;;;;5102601;28;20478;-80
2023/03/04 05:17:16;;;;;;;11.43;1.73;;;;;;;;;;5102278;28;20119;-79
2023/03/04 05:19:42;;;;;;;14.90;2.47;;;;;;;;;;5101126;28;20044;-80
2023/03/04 05:22:08;;;;;;;13.45;2.00;;;;;;;;;;5090717;28;20050;-80
2023/03/04 05:24:34;;;;;;;14.65;2.00;;;;;;;;;;5091439;28;20490;-80
2023/03/04 05:27:01;;;;;;;14.07;1.80;;;;;;;;;;5093309;28;20040;-80
2023/03/04 05:29:27;;;;;;;10.52;1.70;;;;;;;;;;5076680;28;20475;-80
2023/03/04 05:31:53;;;;;;;16.77;2.22;;;;;;;;;;5073527;28;20051;-80
2023/03/04 05:34:19;;;;;;;17.55;2.13;;;;;;;;;;5084720;28;20048;-79
2023/03/04 05:36:45;;;;;;;17.25;2.33;;;;;;;;;;5074038;28;20451;-80
2023/03/04 05:39:11;;;;;;;10.57;1.67;;;;;;;;;;5086776;28;20051;-80
2023/03/04 05:41:38;;;;;;;13.20;2.13;;;;;;;;;;5089676;28;20032;-80
2023/03/04 05:44:04;;;;;;;16.67;2.00;;;;;;;;;;5081023;28;20040;-79
2023/03/04 05:46:30;;;;;;;12.88;2.10;;;;;;;;;;5083732;28;20387;-79
2023/03/04 05:48:56;;;;;;;18.77;2.38;;;;;;;;;;5082727;28;20050;-80
2023/03/04 05:51:22;;;;;;;13.85;1.80;;;;;;;;;;5093481;28;20047;-80
2023/03/04 05:53:48;;;;;;;13.77;1.98;;;;;;;;;;5095511;28;20043;-80
2023/03/04 05:56:16;;;;;;;13.48;1.92;;;;;;;;;;5084146;28;20123;-80
2023/03/04 05:58:42;;;;;;;13.02;2.40;;;;;;;;;;5074552;28;20084;-80
2023/03/04 06:01:09;;;;;;;13.35;2.42;;;;;;;;;;5082939;28;20040;-80
2023/03/04 06:03:35;;;;;;;13.25;1.85;;;;;;;;;;5095397;28;20478;-80
2023/03/04 06:06:02;;;;;;;18.20;2.78;;;;;;;;;;5093159;28;20044;-79
2023/03/04 06:08:28;;;;;;;15.80;2.20;;;;;;;;;;5093536;28;20086;-80
2023/03/04 06:10:55;;;;;;;16.50;1.90;;;;;;;;;;5078219;28;20051;-80
2023/03/04 06:13:22;;;;;;;12.48;2.05;;;;;;;;;;5088503;28;20052;-80
2023/03/04 06:15:52;;;;;;;14.73;1.70;;;;;;;;;;5090971;28;20222;-80
2023/03/04 06:18:18;;;;;;;17.38;2.17;;;;;;;;;;5091077;28;20501;-79
2023/03/04 06:20:44;;;;;;;13.43;1.95;;;;;;;;;;5090480;28;20071;-80
2023/03/04 06:23:11;;;;;;;11.68;1.98;;;;;;;;;;5091448;28;20048;-80
2023/03/04 06:25:37;;;;;;;14.98;2.17;;;;;;;;;;5091648;28;20059;-80
2023/03/04 06:28:03;;;;;;;18.20;2.40;;;;;;;;;;5092490;28;20080;-80
2023/03/04 06:30:29;;;;;;;21.27;2.80;;;;;;;;;;5088512;28;20123;-80
2023/03/04 06:32:55;;;;;;;10.15;2.13;;;;;;;;;;5072578;28;20045;-80
2023/03/04 06:35:21;;;;;;;14.68;2.10;;;;;;;;;;5082144;28;20055;-80
2023/03/04 06:37:47;;;;;;;14.43;2.25;;;;;;;;;;5097521;28;20492;-80
2023/03/04 06:40:13;;;;;;;16.17;2.58;;;;;;;;;;5097875;28;20445;-80
2023/03/04 06:42:40;;;;;;;15.77;2.20;;;;;;;;;;5079923;28;20527;-80
2023/03/04 06:45:06;;;;;;;13.98;2.40;;;;;;;;;;5086367;28;20040;-80
2023/03/04 06:47:32;;;;;;;12.32;2.03;;;;;;;;;;5078470;28;20044;-79
2023/03/04 06:49:58;;;;;;;10.93;2.30;;;;;;;;;;5084611;28;20418;-80
2023/03/04 06:52:24;;;;;;;13.07;2.20;;;;;;;;;;5073162;28;20049;-80
2023/03/04 06:54:50;;;;;;;14.52;2.20;;;;;;;;;;5087943;28;20052;-80
2023/03/04 06:57:17;;;;;;;9.95;2.10;;;;;;;;;;5084523;28;20418;-81
2023/03/04 06:59:43;;;;;;;15.57;2.45;;;;;;;;;;5093070;28;20091;-80
2023/03/04 07:02:11;;;;;;;17.17;2.55;;;;;;;;;;5086760;28;20040;-80
2023/03/04 07:04:37;;;;;;;21.95;3.05;;;;;;;;;;5089325;28;20040;-80
2023/03/04 07:07:03;;;;;;;19.90;2.80;;;;;;;;;;5089676;28;20197;-80
2023/03/04 07:09:29;;;;;;;13.50;2.30;;;;;;;;;;5092460;28;20059;-81
2023/03/04 07:11:55;;;;;;;13.02;2.20;;;;;;;;;;5084505;28;20055;-80
2023/03/04 07:14:21;;;;;;;15.68;2.33;;;;;;;;;;5078435;28;20056;-80
2023/03/04 07:16:47;;;;;;;13.25;2.55;;;;;;;;;;5094188;28;20048;-80
2023/03/04 07:19:14;;;;;;;11.50;2.10;;;;;;;;;;5083615;28;20051;-80
2023/03/04 07:21:40;;;;;;;14.55;2.42;;;;;;;;;;5076531;28;20044;-81
2023/03/04 07:24:06;;;;;;;14.73;2.00;;;;;;;;;;5076756;28;20487;-80
2023/03/04 07:26:32;;;;;;;11.15;2.33;;;;;;;;;;5087868;28;20093;-80
2023/03/04 07:28:58;;;;;;;12.57;2.30;;;;;;;;;;5096299;28;20044;-80
2023/03/04 07:31:28;;;;;;;11.30;2.13;;;;;;;;;;5096446;28;20047;-81
2023/03/04 07:33:56;;;;;;;13.55;2.00;;;;;;;;;;5082780;28;20063;-80
2023/03/04 07:36:22;;;;;;;13.93;1.98;;;;;;;;;;5077818;28;20066;-80
2023/03/04 07:38:49;;;;;;;11.30;1.75;;;;;;;;;;5082199;28;20113;-80
2023/03/04 07:41:16;;;;;;;15.23;2.08;;;;;;;;;;5085431;28;20040;-80
2023/03/04 07:43:42;;;;;;;10.55;1.90;;;;;;;;;;5083135;28;20044;-80
2023/03/04 07:46:09;;;;;;;14.75;1.92;;;;;;;;;;5088925;28;20095;-80
2023/03/04 07:48:35;;;;;;;12.20;2.20;;;;;;;;;;5085107;28;20040;-81
2023/03/04 07:51:09;;;;;;;14.13;2.08;;;;;;;;;;5076728;28;20101;-81
2023/03/04 07:53:36;;;;;;;11.95;2.35;;;;;;;;;;5078329;28;20036;-80
2023/03/04 07:56:03;;;;;;;16.15;1.90;;;;;;;;;;5080804;28;20197;-81
2023/03/04 07:58:29;;;;;;;12.45;1.70;;;;;;;;;;5098746;28;20044;-80
2023/03/04 08:00:55;;;;;;;14.68;2.10;;;;;;;;;;5090654;28;20080;-80
2023/03/04 08:03:21;;;;;;;14.27;1.83;;;;;;;;;;5088467;28;20051;-81
2023/03/04 08:05:47;;;;;;;17.95;2.35;;;;;;;;;;5085972;28;20044;-82
2023/03/04 08:08:13;;;;;;;13.25;1.98;;;;;;;;;;5100437;28;20099;-80
2023/03/04 08:10:39;;;;;;;16.42;2.33;;;;;;;;;;5095972;28;20048;-81
2023/03/04 08:13:06;;;;;;;13.88;2.20;;;;;;;;;;5102520;28;20063;-81
2023/03/04 08:15:34;;;;;;;16.25;2.35;;;;;;;;;;5101839;28;20040;-81
2023/03/04 08:18:00;;;;;;;14.07;2.28;;;;;;;;;;5089355;28;20059;-81
2023/03/04 08:20:26;;;;;;;20.95;2.45;;;;;;;;;;5101483;28;20048;-81
2023/03/04 08:22:52;;;;;;;23.20;2.70;;;;;;;;;;5101181;28;20055;-81
2023/03/04 08:25:18;;;;;;;26.42;3.22;;;;;;;;;;5094036;28;20036;-81
2023/03/04 08:27:44;;;;;;;18.90;2.90;;;;;;;;;;5100596;28;20040;-81
2023/03/04 08:30:10;;;;;;;21.92;2.95;;;;;;;;;;5101229;28;20121;-81
2023/03/04 08:32:37;;;;;;;24.30;3.17;;;;;;;;;;5098661;28;20453;-81
2023/03/04 08:35:03;;;;;;;21.05;3.03;;;;;;;;;;5080380;28;20067;-80
2023/03/04 08:37:29;;;;;;;18.40;3.25;;;;;;;;;;5074830;28;20132;-81
2023/03/04 08:39:55;;;;;;;25.17;3.30;;;;;;;;;;5086393;28;20042;-81
2023/03/04 08:42:23;;;;;;;32.10;4.30;;;;;;;;;;5085542;28;20108;-81
2023/03/04 08:44:49;;;;;;;30.58;4.20;;;;;;;;;;5094620;28;20127;-81
2023/03/04 08:47:15;;;;;;;30.48;3.90;;;;;;;;;;5089462;28;20054;-80
2023/03/04 08:49:41;;;;;;;28.38;3.92;;;;;;;;;;5085317;28;20036;-80
2023/03/04 08:52:07;;;;;;;19.98;3.08;;;;;;;;;;5079331;28;20041;-80
2023/03/04 08:54:33;;;;;;;26.08;3.55;;;;;;;;;;5076504;28;20045;-80
2023/03/04 08:56:59;;;;;;;26.23;3.72;;;;;;;;;;5079543;28;20499;-80
2023/03/04 08:59:25;;;;;;;20.67;3.33;;;;;;;;;;5091312;28;20505;-81
2023/03/04 09:01:51;;;;;;;23.30;3.38;;;;;;;;;;5082479;28;20040;-81
2023/03/04 09:04:17;;;;;;;23.42;3.65;;;;;;;;;;5077777;28;20049;-81
2023/03/04 09:06:43;;;;;;;29.83;3.72;;;;;;;;;;5079690;28;20067;-80
2023/03/04 09:09:09;;;;;;;23.23;3.53;;;;;;;;;;5080802;28;20056;-80
2023/03/04 09:11:36;;;;;;;23.88;3.58;;;;;;;;;;5078550;28;20049;-81
2023/03/04 09:14:02;;;;;;;20.10;3.30;;;;;;;;;;5079498;28;20104;-81
2023/03/04 09:16:28;;;;;;;28.27;3.90;;;;;;;;;;5079174;28;20044;-81
2023/03/04 09:18:54;;;;;;;25.75;3.05;;;;;;;;;;5087239;28;20052;-80
2023/03/04 09:21:20;;;;;;;23.52;3.30;;;;;;;;;;5096550;28;20048;-80
2023/03/04 09:23:46;;;;;;;20.35;3.40;;;;;;;;;;5098250;28;20481;-80
2023/03/04 09:26:20;;;;;;;23.95;3.55;;;;;;;;;;5082474;28;20044;-80
2023/03/04 09:28:49;;;;;;;22.13;3.72;;;;;;;;;;5078048;28;20049;-81
2023/03/04 09:31:15;;;;;;;24.88;3.20;;;;;;;;;;5086307;28;20047;-68
2023/03/04 09:33:42;;;;;;;25.55;4.22;;;;;;;;;;5099841;28;20089;-80
2023/03/04 09:36:09;;;;;;;23.95;3.92;;;;;;;;;;5102564;28;20105;-80
2023/03/04 09:38:37;;;;;;;26.23;3.78;;;;;;;;;;5084117;28;20501;-79
2023/03/04 09:41:06;;;;;;;28.27;3.58;;;;;;;;;;5090040;28;20040;-79
2023/03/04 09:43:33;;;;;;;25.55;3.80;;;;;;;;;;5097235;28;20036;-79
2023/03/04 09:46:03;;;;;;;23.48;3.50;;;;;;;;;;5098419;28;20035;-77
2023/03/04 09:48:32;;;;;;;20.60;3.43;;;;;;;;;;5091170;28;20486;-80
2023/03/04 09:51:02;;;;;;;17.95;3.20;;;;;;;;;;5081446;28;20122;-80
2023/03/04 09:53:34;;;;;;;20.98;3.13;;;;;;;;;;5075362;28;20040;-80
2023/03/04 09:56:02;;;;;;;24.40;3.03;;;;;;;;;;5079899;28;20048;-80
2023/03/04 09:58:35;;;;;;;17.60;2.67;;;;;;;;;;5067938;28;20060;-79
2023/03/04 10:01:04;;;;;;;18.77;2.88;;;;;;;;;;5100075;28;20401;-79
2023/03/04 10:03:33;;;;;;;17.30;2.78;;;;;;;;;;5092533;28;20041;-79
2023/03/04 10:06:20;;;;;;;17.77;2.70;;;;;;;;;;5083465;28;20090;-80
2023/03/04 10:08:46;;;;;;;17.85;2.22;;;;;;;;;;5089449;28;20037;-79
2023/03/04 10:11:24;;;;;;;13.38;2.05;;;;;;;;;;5080076;28;20057;-79
2023/03/04 10:13:50;;;;;;;14.20;1.88;;;;;;;;;;5077681;28;20115;-80
2023/03/04 10:16:18;;;;;;;10.57;1.90;;;;;;;;;;5084010;28;20064;-80
2023/03/04 10:19:03;;;;;;;10.00;1.52;;;;;;;;;;5080541;28;20399;-80
2023/03/04 10:21:31;;;;;;;10.73;1.83;;;;;;;;;;5079493;28;20166;-79
2023/03/04 10:23:59;;;;;;;9.88;1.70;;;;;;;;;;5094718;28;20448;-80
2023/03/04 10:26:28;;;;;;;12.13;1.48;;;;;;;;;;5089977;28;20048;-79
2023/03/04 10:28:54;;;;;;;8.93;1.20;;;;;;;;;;5097455;28;20040;-80
2023/03/04 10:31:21;;;;;;;6.68;1.17;;;;;;;;;;5081168;28;20076;-80
2023/03/04 10:33:48;;;;;;;9.93;1.55;;;;;;;;;;5061692;28;20100;-79
2023/03/04 10:36:31;;;;;;;8.60;1.20;;;;;;;;;;5082012;28;20093;-79
2023/03/04 10:39:09;;;;;;;7.22;1.02;;;;;;;;;;5083882;28;20046;-80
2023/03/04 10:41:35;;;;;;;7.65;1.20;;;;;;;;;;5088113;28;20037;-80
2023/03/04 10:44:11;;;;;;;8.75;1.77;;;;;;;;;;5080238;28;20043;-80
2023/03/04 10:46:42;;;;;;;8.63;1.50;;;;;;;;;;5081097;28;20047;-79
2023/03/04 10:49:13;;;;;;;10.35;1.25;;;;;;;;;;5082084;28;20104;-80
2023/03/04 10:51:44;;;;;;;10.48;1.70;;;;;;;;;;5080331;28;20052;-79
2023/03/04 10:54:17;;;;;;;14.77;2.35;;;;;;;;;;5084821;28;20140;-79
2023/03/04 10:56:52;;;;;;;16.08;2.33;;;;;;;;;;5081228;28;20055;-79
2023/03/04 10:59:25;;;;;;;22.33;3.70;;;;;;;;;;5087415;28;20430;-79
2023/03/04 11:01:53;;;;;;;20.25;3.17;;;;;;;;;;5090975;28;20047;-79
2023/03/04 11:04:20;;;;;;;18.10;3.05;;;;;;;;;;5091953;28;20350;-78
2023/03/04 11:06:46;;;;;;;22.65;3.10;;;;;;;;;;5084312;28;20056;-79
2023/03/04 11:09:21;;;;;;;21.63;2.92;;;;;;;;;;5075287;28;20059;-79
2023/03/04 11:11:49;;;;;;;17.08;2.70;;;;;;;;;;5073580;28;20406;-80
2023/03/04 11:14:30;;;;;;;21.70;3.22;;;;;;;;;;5076850;28;20044;-80
2023/03/04 11:17:15;;;;;;;21.35;3.00;;;;;;;;;;5081158;28;20037;-80
2023/03/04 11:19:42;;;;;;;18.70;2.88;;;;;;;;;;5095896;28;20486;-79
2023/03/04 11:22:09;;;;;;;24.63;3.05;;;;;;;;;;5108788;28;20131;-79
2023/03/04 11:24:37;;;;;;;16.15;2.70;;;;;;;;;;5105031;28;20043;-79
2023/03/04 11:27:05;;;;;;;14.00;2.50;;;;;;;;;;5086104;28;20047;-79
2023/03/04 11:29:42;;;;;;;15.77;2.88;;;;;;;;;;5083361;28;20044;-79
2023/03/04 11:32:08;;;;;;;15.07;2.70;;;;;;;;;;5084900;28;20127;-79
2023/03/04 11:34:38;;;;;;;18.00;2.50;;;;;;;;;;5083114;28;20059;-80
2023/03/04 11:37:08;;;;;;;18.37;3.50;;;;;;;;;;5083952;28;20052;-80
2023/03/04 11:39:37;;;;;;;20.38;3.13;;;;;;;;;;5082751;28;20036;-79
2023/03/04 11:42:22;;;;;;;18.77;2.95;;;;;;;;;;5084588;28;20570;-79
2023/03/04 11:44:48;;;;;;;17.27;3.22;;;;;;;;;;5081210;28;20049;-79
2023/03/04 11:47:23;;;;;;;20.67;2.90;;;;;;;;;;5082598;28;20059;-79
2023/03/04 11:50:02;;;;;;;17.83;2.83;;;;;;;;;;5082468;28;20045;-78
2023/03/04 11:52:34;;;;;;;12.20;2.47;;;;;;;;;;5081945;28;20048;-79
2023/03/04 11:55:00;;;;;;;17.88;3.25;;;;;;;;;;5080618;28;20103;-78
2023/03/04 11:57:36;;;;;;;15.05;2.65;;;;;;;;;;5083669;28;20044;-79
2023/03/04 12:00:02;;;;;;;16.42;2.60;;;;;;;;;;5081434;28;20045;-79
2023/03/04 12:02:47;;;;;;;17.55;2.97;;;;;;;;;;5081164;28;20048;-79
2023/03/04 12:05:13;;;;;;;12.73;2.75;;;;;;;;;;5083331;28;20076;-79
2023/03/04 12:07:39;;;;;;;15.77;2.22;;;;;;;;;;5070314;28;20044;-79
2023/03/04 12:10:20;;;;;;;14.95;2.42;;;;;;;;;;5099480;28;20055;-79
2023/03/04 12:12:57;;;;;;;17.30;2.47;;;;;;;;;;5103987;28;20095;-79
2023/03/04 12:15:24;;;;;;;14.50;2.70;;;;;;;;;;5099547;28;20163;-79
2023/03/04 12:18:01;;;;;;;16.33;3.25;;;;;;;;;;5086965;28;20051;-79
2023/03/04 12:20:37;;;;;;;15.18;2.50;;;;;;;;;;5080994;28;20051;-79
2023/03/04 12:23:06;;;;;;;17.35;2.45;;;;;;;;;;5078648;28;20052;-79
2023/03/04 12:25:51;;;;;;;18.42;2.70;;;;;;;;;;5089135;28;20052;-79
2023/03/04 12:28:23;;;;;;;14.95;2.80;;;;;;;;;;5079817;28;20442;-79
2023/03/04 12:31:07;;;;;;;19.27;3.05;;;;;;;;;;5082472;28;20052;-79
2023/03/04 12:33:52;;;;;;;18.55;2.50;;;;;;;;;;5100586;28;20055;-79
2023/03/04 12:36:25;;;;;;;15.10;2.88;;;;;;;;;;5100422;28;20362;-79
2023/03/04 12:39:11;;;;;;;18.77;2.80;;;;;;;;;;5099035;28;20053;-79
2023/03/04 12:41:43;;;;;;;17.58;2.20;;;;;;;;;;5082422;28;20045;-79
2023/03/04 12:44:17;;;;;;;18.63;3.22;;;;;;;;;;5087910;28;20070;-79
2023/03/04 12:47:05;;;;;;;14.70;2.65;;;;;;;;;;5089972;28;20051;-79
2023/03/04 12:49:37;;;;;;;14.48;2.40;;;;;;;;;;5088625;28;20051;-79
2023/03/04 12:52:14;;;;;;;14.23;2.50;;;;;;;;;;5083273;28;20052;-79
2023/03/04 12:54:43;;;;;;;19.05;2.85;;;;;;;;;;5086011;28;20052;-79
2023/03/04 12:57:14;;;;;;;17.08;2.92;;;;;;;;;;5093721;28;20063;-79
2023/03/04 12:59:42;;;;;;;14.65;2.63;;;;;;;;;;5080454;28;20049;-80
2023/03/04 13:02:11;;;;;;;16.90;2.70;;;;;;;;;;5088372;28;20421;-79
2023/03/04 13:04:59;;;;;;;13.65;2.65;;;;;;;;;;5091382;28;20509;-80
2023/03/04 13:07:25;;;;;;;13.38;2.70;;;;;;;;;;5089089;28;20059;-79
2023/03/04 13:09:55;;;;;;;13.23;2.25;;;;;;;;;;5085162;28;20052;-79
2023/03/04 13:12:22;;;;;;;13.63;2.42;;;;;;;;;;5087426;28;20089;-79
2023/03/04 13:15:07;;;;;;;18.45;2.85;;;;;;;;;;5092838;28;20459;-79
2023/03/04 13:17:36;;;;;;;21.52;3.22;;;;;;;;;;5088624;28;20040;-79
2023/03/04 13:20:25;;;;;;;20.00;2.90;;;;;;;;;;5094746;28;20035;-79
2023/03/04 13:22:54;;;;;;;16.40;2.72;;;;;;;;;;5089405;28;20418;-79
2023/03/04 13:25:30;;;;;;;14.35;2.58;;;;;;;;;;5091689;28;20039;-79
2023/03/04 13:28:02;;;;;;;15.52;2.30;;;;;;;;;;5089254;28;20083;-79
2023/03/04 13:30:34;;;;;;;15.63;2.78;;;;;;;;;;5087987;28;20048;-80
2023/03/04 13:33:14;;;;;;;20.45;2.90;;;;;;;;;;5087316;28;20383;-80
2023/03/04 13:35:43;;;;;;;19.83;3.65;;;;;;;;;;5084354;28;20533;-79
2023/03/04 13:38:33;;;;;;;15.65;2.60;;;;;;;;;;5088354;28;20155;-80
2023/03/04 13:40:59;;;;;;;20.80;3.00;;;;;;;;;;5082465;28;20047;-80
2023/03/04 13:43:45;;;;;;;16.67;3.10;;;;;;;;;;5086733;28;20032;-80
2023/03/04 13:46:22;;;;;;;23.73;3.75;;;;;;;;;;5078703;28;20114;-79
2023/03/04 13:48:51;;;;;;;19.05;3.08;;;;;;;;;;5081619;28;20055;-79
2023/03/04 13:51:36;;;;;;;19.27;3.17;;;;;;;;;;5076874;28;20087;-80
2023/03/04 13:54:03;;;;;;;18.85;3.40;;;;;;;;;;5078179;28;20045;-80
2023/03/04 13:56:36;;;;;;;18.08;3.40;;;;;;;;;;5082297;28;20048;-80
2023/03/04 13:59:08;;;;;;;19.23;3.70;;;;;;;;;;5081730;28;20478;-80
2023/03/04 14:01:41;;;;;;;23.15;3.80;;;;;;;;;;5087360;28;20409;-78
2023/03/04 14:04:30;;;;;;;20.33;3.72;;;;;;;;;;5087305;28;20138;-79
2023/03/04 14:06:57;;;;;;;16.13;3.55;;;;;;;;;;5081839;28;20151;-80
2023/03/04 14:09:24;;;;;;;17.35;2.97;;;;;;;;;;5082389;28;20084;-80
2023/03/04 14:11:52;;;;;;;16.70;3.95;;;;;;;;;;5083904;28;20139;-80
2023/03/04 14:14:20;;;;;;;18.35;3.17;;;;;;;;;;5087309;28;20087;-80
2023/03/04 14:16:54;;;;;;;16.38;3.20;;;;;;;;;;5081781;28;20043;-80
2023/03/04 14:19:31;;;;;;;13.68;2.72;;;;;;;;;;5093717;28;20344;-79
2023/03/04 14:21:59;;;;;;;17.17;2.95;;;;;;;;;;5092439;28;20449;-79
2023/03/04 14:24:25;;;;;;;17.65;2.72;;;;;;;;;;5094159;28;20052;-79
2023/03/04 14:27:03;;;;;;;14.32;2.25;;;;;;;;;;5087767;28;20798;-80
2023/03/04 14:29:30;;;;;;;15.73;2.63;;;;;;;;;;5086589;28;20042;-80
2023/03/04 14:31:56;;;;;;;16.23;2.47;;;;;;;;;;5085625;28;20044;-80
2023/03/04 14:34:41;;;;;;;14.48;2.50;;;;;;;;;;5088180;28;20040;-80
2023/03/04 14:37:39;;;;;;;11.75;2.17;;;;;;;;;;5083565;28;20166;-80
2023/03/04 14:40:07;;;;;;;22.00;3.42;;;;;;;;;;5081585;28;20074;-80